Time;durP1;ratioP1;P1;durP2;ratioP2;P2;SDS_P1;SDS_P2;PMS_P1;PMS_P2;Temp;Humidity;BMP_temperature;BMP_pressure;BME280_temperature;BME280_humidity;BME280_pressure;Samples;Min_cycle;Max_cycle;Signal;HPM_P1;HPM_P2
2021/06/23 00:00:54;;;;;;;15.93;9.52;;;;;;;27.24;55.39;99402.31;4349782;32;34605;-88
2021/06/23 00:03:23;;;;;;;17.35;9.45;;;;;;;27.23;55.46;99402.44;4337654;32;36168;-89
2021/06/23 00:05:51;;;;;;;21.10;9.93;;;;;;;27.14;55.76;99405.78;4337333;32;33312;-88
2021/06/23 00:08:19;;;;;;;19.20;9.45;;;;;;;27.17;55.65;99400.22;4337806;32;34308;-88
2021/06/23 00:10:49;;;;;;;19.77;9.32;;;;;;;27.20;55.69;99403.50;4362143;32;33794;-88
2021/06/23 00:13:18;;;;;;;19.90;9.68;;;;;;;27.17;55.70;99401.06;4337490;32;34310;-88
2021/06/23 00:15:47;;;;;;;20.08;10.35;;;;;;;27.09;55.94;99402.59;4337590;32;35140;-87
2021/06/23 00:18:14;;;;;;;22.73;9.65;;;;;;;27.05;55.84;99410.00;4337117;32;34254;-87
2021/06/23 00:20:42;;;;;;;17.77;9.07;;;;;;;27.09;55.69;99408.81;4349698;32;33313;-87
2021/06/23 00:23:10;;;;;;;17.30;9.55;;;;;;;27.03;55.72;99409.25;4362041;32;35880;-87
2021/06/23 00:25:42;;;;;;;;;;;;;;;27.02;55.92;99412.88;4338519;32;34751;-86
2021/06/23 00:28:10;;;;;;;17.67;9.55;;;;;;;27.00;55.95;99413.97;4349673;32;34037;-86
2021/06/23 00:30:37;;;;;;;19.45;9.68;;;;;;;26.91;56.10;99420.81;4337568;32;33739;-87
2021/06/23 00:33:07;;;;;;;22.48;10.02;;;;;;;26.89;56.13;99422.75;4349711;32;34129;-86
2021/06/23 00:35:35;;;;;;;22.92;9.43;;;;;;;26.95;55.99;99422.31;4349770;32;34702;-86
2021/06/23 00:38:03;;;;;;;19.70;9.27;;;;;;;26.90;55.99;99416.44;4337173;32;34019;-86
2021/06/23 00:40:31;;;;;;;16.70;9.27;;;;;;;26.94;55.78;99417.91;4337320;32;33614;-87
2021/06/23 00:42:59;;;;;;;17.90;9.57;;;;;;;26.84;56.04;99422.22;4349651;32;34468;-87
2021/06/23 00:45:27;;;;;;;20.77;9.05;;;;;;;26.85;55.91;99421.28;4348468;32;35165;-87
2021/06/23 00:47:56;;;;;;;25.55;10.10;;;;;;;26.84;56.01;99423.06;4349670;32;33633;-87
2021/06/23 00:50:26;;;;;;;24.52;10.05;;;;;;;26.76;56.26;99416.59;4349396;32;33355;-86
2021/06/23 00:52:55;;;;;;;23.62;9.73;;;;;;;26.74;56.23;99423.84;4337811;32;34959;-87
2021/06/23 00:55:25;;;;;;;24.70;10.52;;;;;;;26.83;55.92;99428.53;4349481;32;34088;-86
2021/06/23 00:57:54;;;;;;;22.48;10.15;;;;;;;26.70;56.21;99428.53;4361513;32;34853;-86
2021/06/23 01:00:25;;;;;;;20.00;10.00;;;;;;;26.68;56.23;99425.12;4337139;32;33441;-85
2021/06/23 01:02:54;;;;;;;21.08;9.90;;;;;;;26.71;56.19;99434.72;4338132;32;34472;-85
2021/06/23 01:05:22;;;;;;;18.73;10.00;;;;;;;26.66;56.21;99435.06;4349428;32;34007;-85
2021/06/23 01:07:50;;;;;;;17.00;9.23;;;;;;;26.67;56.20;99427.91;4337196;32;32942;-85
2021/06/23 01:10:18;;;;;;;18.80;9.50;;;;;;;26.64;56.32;99422.78;4337575;32;34418;-85
2021/06/23 01:13:02;;;;;;;23.90;9.77;;;;;;;26.67;56.26;99427.91;4337358;32;34479;-85
2021/06/23 01:15:30;;;;;;;16.98;9.38;;;;;;;26.60;56.43;99424.81;4349541;32;34949;-84
2021/06/23 01:17:58;;;;;;;24.00;9.75;;;;;;;26.57;56.42;99426.84;4337211;32;34131;-85
2021/06/23 01:20:26;;;;;;;22.67;10.30;;;;;;;26.59;56.40;99424.94;4336836;32;33553;-87
2021/06/23 01:22:55;;;;;;;17.73;9.63;;;;;;;26.62;56.38;99424.72;4336528;32;35588;-86
2021/06/23 01:25:23;;;;;;;19.55;9.52;;;;;;;26.52;56.77;99426.31;4336946;32;33681;-86
2021/06/23 01:27:51;;;;;;;18.98;10.13;;;;;;;26.49;56.87;99423.88;4361365;32;34609;-86
2021/06/23 01:30:19;;;;;;;16.67;9.60;;;;;;;26.46;56.97;99424.09;4349524;32;33894;-86
2021/06/23 01:32:48;;;;;;;18.80;9.52;;;;;;;26.49;56.88;99418.53;4337229;32;34863;-85
2021/06/23 01:35:16;;;;;;;24.02;9.30;;;;;;;26.54;56.67;99421.72;4336421;32;33912;-85
2021/06/23 01:37:44;;;;;;;18.27;9.82;;;;;;;26.46;56.78;99424.94;4360707;32;33667;-86
2021/06/23 01:40:12;;;;;;;17.73;9.13;;;;;;;26.43;56.80;99430.50;4348292;32;33264;-85
2021/06/23 01:42:40;;;;;;;18.62;10.05;;;;;;;26.42;56.80;99428.78;4349027;32;34569;-85
2021/06/23 01:45:09;;;;;;;18.87;9.50;;;;;;;26.41;56.89;99426.25;4360948;32;34605;-85
2021/06/23 01:47:37;;;;;;;15.65;9.80;;;;;;;26.46;56.76;99432.09;4349157;32;33431;-86
2021/06/23 01:50:06;;;;;;;24.83;10.63;;;;;;;26.41;56.93;99426.25;4349122;32;33837;-85
2021/06/23 01:52:40;;;;;;;18.70;9.73;;;;;;;26.36;57.07;99439.91;4337321;32;35273;-85
2021/06/23 01:55:26;;;;;;;24.80;9.65;;;;;;;26.42;56.95;99435.94;4336987;32;34057;-86
2021/06/23 01:58:06;;;;;;;18.48;9.43;;;;;;;26.31;57.10;99439.38;4336686;32;32968;-86
2021/06/23 02:01:11;;;;;;;15.25;9.55;;;;;;;26.30;57.11;99439.47;4349112;32;33906;-86
2021/06/23 02:03:47;;;;;;;17.75;9.45;;;;;;;26.26;57.16;99438.84;4359329;32;34509;-86
2021/06/23 02:06:40;;;;;;;22.35;8.85;;;;;;;26.28;56.80;99438.72;4349219;32;34048;-86
2021/06/23 02:09:27;;;;;;;21.80;10.35;;;;;;;26.17;57.10;99440.31;4362196;32;33613;-85
2021/06/23 02:12:24;;;;;;;21.15;9.30;;;;;;;26.19;56.98;99448.22;4362126;32;34554;-86
2021/06/23 02:15:05;;;;;;;23.30;9.80;;;;;;;26.23;56.81;99449.69;4319474;32;35142;-85
2021/06/23 02:17:33;;;;;;;20.10;9.55;;;;;;;26.15;57.08;99458.22;4336491;32;33245;-86
2021/06/23 02:20:03;;;;;;;16.80;9.25;;;;;;;26.08;57.22;99454.25;4348393;32;33044;-86
2021/06/23 02:22:33;;;;;;;18.00;9.10;;;;;;;26.13;57.04;99464.62;4348745;32;35099;-85
2021/06/23 02:25:10;;;;;;;19.27;9.47;;;;;;;26.09;57.08;99466.63;4348532;32;33964;-86
2021/06/23 02:27:40;;;;;;;21.35;9.90;;;;;;;26.17;57.05;99463.47;4336819;32;34031;-86
2021/06/23 02:30:09;;;;;;;22.60;11.38;;;;;;;26.10;57.15;99463.00;4349141;32;33247;-86
2021/06/23 02:32:40;;;;;;;19.40;10.27;;;;;;;26.09;57.26;99468.44;4349078;32;34284;-86
2021/06/23 02:35:09;;;;;;;21.83;9.82;;;;;;;26.06;57.30;99468.63;4348629;32;34116;-88
2021/06/23 02:37:38;;;;;;;18.95;10.48;;;;;;;26.05;57.31;99467.78;4348804;32;34844;-87
2021/06/23 02:40:07;;;;;;;24.23;10.82;;;;;;;26.00;57.45;99469.06;4336907;32;33504;-86
2021/06/23 02:42:36;;;;;;;17.73;10.00;;;;;;;26.01;57.40;99474.28;4336772;32;34165;-86
2021/06/23 02:45:05;;;;;;;20.88;10.68;;;;;;;25.89;57.83;99472.44;4324513;32;34174;-87
2021/06/23 02:47:36;;;;;;;19.05;9.75;;;;;;;25.95;57.59;99480.03;4361010;32;34446;-86
2021/06/23 02:50:06;;;;;;;16.75;9.60;;;;;;;25.97;57.58;99479.94;4336359;32;33951;-86
2021/06/23 02:52:35;;;;;;;18.50;10.18;;;;;;;25.91;57.64;99475.84;4360954;32;34081;-86
2021/06/23 02:55:05;;;;;;;19.02;10.40;;;;;;;25.96;57.55;99473.72;4360648;32;34370;-85
2021/06/23 02:57:35;;;;;;;21.52;10.80;;;;;;;26.05;57.30;99474.94;4348431;32;34933;-86
2021/06/23 03:00:05;;;;;;;19.85;11.05;;;;;;;25.94;57.53;99488.97;4336204;32;34790;-85
2021/06/23 03:02:33;;;;;;;19.37;10.07;;;;;;;25.92;57.64;99487.38;4348113;32;34064;-85
2021/06/23 03:05:01;;;;;;;19.40;10.52;;;;;;;25.94;57.64;99485.47;4348205;32;34366;-85
2021/06/23 03:07:29;;;;;;;17.75;10.75;;;;;;;25.94;57.68;99488.13;4335768;32;35357;-85
2021/06/23 03:10:07;;;;;;;19.95;10.48;;;;;;;25.93;57.71;99479.31;4349922;32;34346;-87
2021/06/23 03:12:41;;;;;;;20.70;9.65;;;;;;;25.83;58.00;99486.19;4350694;32;35817;-86
2021/06/23 03:15:11;;;;;;;18.42;10.98;;;;;;;25.86;58.01;99491.31;4349823;32;34034;-85
2021/06/23 03:17:38;;;;;;;19.80;11.05;;;;;;;25.80;58.15;99486.41;4337968;32;34841;-85
2021/06/23 03:20:08;;;;;;;17.33;10.07;;;;;;;25.73;58.33;99487.75;4337603;32;33749;-85
2021/06/23 03:22:38;;;;;;;20.35;11.30;;;;;;;25.78;58.33;99490.97;4363524;32;33878;-86
2021/06/23 03:25:06;;;;;;;18.15;10.50;;;;;;;25.76;58.28;99492.91;4349781;32;34096;-86
2021/06/23 03:27:34;;;;;;;22.48;10.95;;;;;;;25.79;58.37;99500.69;4362150;32;35028;-86
2021/06/23 03:30:04;;;;;;;20.95;10.05;;;;;;;25.88;58.16;99497.41;4373596;32;33560;-86
2021/06/23 03:32:32;;;;;;;21.48;10.32;;;;;;;25.93;58.17;99510.41;4337770;32;34658;-86
2021/06/23 03:35:00;;;;;;;20.55;10.77;;;;;;;25.86;58.36;99504.66;4362390;32;34470;-85
2021/06/23 03:37:28;;;;;;;19.33;10.18;;;;;;;25.84;58.50;99501.22;4350042;32;35319;-86
2021/06/23 03:39:56;;;;;;;25.88;10.60;;;;;;;25.86;58.57;99499.31;4337659;32;32968;-86
2021/06/23 03:42:24;;;;;;;21.58;11.20;;;;;;;25.89;58.47;99507.09;4337767;32;34389;-85
2021/06/23 03:44:52;;;;;;;18.35;11.07;;;;;;;25.86;58.60;99512.63;4349924;32;34646;-87
2021/06/23 03:47:21;;;;;;;20.27;11.10;;;;;;;25.95;58.36;99512.00;4350473;32;34659;-87
2021/06/23 03:49:50;;;;;;;17.15;10.32;;;;;;;26.04;58.07;99513.19;4350344;32;34643;-86
2021/06/23 03:52:18;;;;;;;22.35;11.07;;;;;;;26.06;58.05;99517.47;4349815;32;34351;-86
2021/06/23 03:54:46;;;;;;;25.67;11.27;;;;;;;26.08;58.01;99514.69;4337464;32;34497;-86
2021/06/23 03:57:15;;;;;;;20.55;10.57;;;;;;;26.10;57.88;99511.00;4337158;32;34636;-87
2021/06/23 03:59:43;;;;;;;22.08;10.25;;;;;;;26.19;57.81;99517.53;4337407;32;32810;-85
2021/06/23 04:02:11;;;;;;;20.30;9.73;;;;;;;26.27;57.79;99519.66;4337565;32;33445;-85
2021/06/23 04:04:40;;;;;;;25.90;11.65;;;;;;;26.27;57.84;99517.84;4337494;32;33948;-86
2021/06/23 04:07:08;;;;;;;28.83;11.15;;;;;;;26.27;57.83;99515.16;4363087;32;34625;-85
2021/06/23 04:09:35;;;;;;;21.65;11.30;;;;;;;26.38;57.59;99514.44;4349766;32;32422;-85
2021/06/23 04:12:04;;;;;;;21.62;10.27;;;;;;;26.39;57.62;99521.47;4349538;32;34823;-87
2021/06/23 04:14:33;;;;;;;21.50;10.65;;;;;;;26.42;57.64;99521.25;4362860;32;35751;-85
2021/06/23 04:17:01;;;;;;;18.95;10.63;;;;;;;26.50;57.36;99521.59;4325405;32;33594;-85
2021/06/23 04:19:29;;;;;;;18.48;10.55;;;;;;;26.50;57.41;99522.44;4337720;32;33924;-85
2021/06/23 04:21:57;;;;;;;21.02;11.00;;;;;;;26.51;57.54;99521.47;4349696;32;33707;-85
2021/06/23 04:24:25;;;;;;;23.23;11.27;;;;;;;26.57;57.39;99528.22;4337517;32;34022;-85
2021/06/23 04:26:53;;;;;;;23.20;10.52;;;;;;;26.61;57.39;99521.69;4349803;32;34014;-85
2021/06/23 04:29:22;;;;;;;18.92;10.55;;;;;;;26.73;57.16;99528.84;4337341;32;33460;-86
2021/06/23 04:31:50;;;;;;;20.80;11.55;;;;;;;26.81;56.62;99522.00;4349189;32;33186;-86
2021/06/23 04:34:18;;;;;;;20.67;10.35;;;;;;;26.78;57.11;99532.06;4337444;32;34845;-86
2021/06/23 04:36:47;;;;;;;26.23;11.55;;;;;;;27.03;56.44;99526.69;4337348;32;33966;-86
2021/06/23 04:39:15;;;;;;;20.08;11.68;;;;;;;26.94;56.73;99538.00;4361916;32;33927;-86
2021/06/23 04:41:45;;;;;;;23.65;11.70;;;;;;;26.80;57.51;99530.13;4349445;32;34689;-86
2021/06/23 04:44:13;;;;;;;26.98;11.95;;;;;;;26.81;57.56;99530.00;4363061;32;34767;-85
2021/06/23 04:46:41;;;;;;;23.02;10.77;;;;;;;27.02;56.81;99527.66;4337257;32;33743;-85
2021/06/23 04:49:10;;;;;;;25.15;11.10;;;;;;;27.06;56.98;99537.13;4349630;32;33491;-85
2021/06/23 04:51:40;;;;;;;21.50;12.23;;;;;;;27.18;56.71;99535.41;4350110;32;33157;-87
2021/06/23 04:54:07;;;;;;;22.08;12.25;;;;;;;27.26;56.50;99544.59;4349568;32;33943;-86
2021/06/23 04:56:36;;;;;;;21.02;11.45;;;;;;;27.26;56.60;99544.59;4362016;32;35308;-86
2021/06/23 04:59:04;;;;;;;38.50;12.90;;;;;;;27.31;56.96;99533.56;4349804;32;33483;-84
2021/06/23 05:01:32;;;;;;;30.33;12.75;;;;;;;27.38;56.97;99527.69;4337648;32;33792;-84
2021/06/23 05:04:01;;;;;;;25.42;12.50;;;;;;;27.44;56.84;99531.72;4337951;32;35106;-85
2021/06/23 05:06:29;;;;;;;23.70;12.93;;;;;;;27.55;59.37;99536.28;4349435;32;33810;-85
2021/06/23 05:08:57;;;;;;;23.62;13.27;;;;;;;27.82;56.51;99539.56;4349316;32;33407;-85
2021/06/23 05:11:25;;;;;;;19.08;11.88;;;;;;;27.98;55.84;99548.16;4337301;32;35179;-85
2021/06/23 05:13:56;;;;;;;25.95;12.23;;;;;;;28.22;55.37;99551.66;4337523;32;34876;-87
2021/06/23 05:16:25;;;;;;;25.98;13.48;;;;;;;28.10;55.93;99552.59;4349995;32;33985;-85
2021/06/23 05:18:54;;;;;;;20.92;12.75;;;;;;;28.12;56.06;99553.34;4349350;32;33716;-85
2021/06/23 05:21:22;;;;;;;24.58;12.68;;;;;;;28.16;56.23;99547.66;4337136;32;34518;-85
2021/06/23 05:23:54;;;;;;;28.55;13.40;;;;;;;28.26;56.17;99553.16;4361549;32;34952;-85
2021/06/23 05:26:22;;;;;;;24.17;13.07;;;;;;;28.30;55.75;99554.59;4349107;32;35317;-86
2021/06/23 05:28:49;;;;;;;29.85;12.52;;;;;;;28.62;55.08;99550.31;4337119;32;33447;-85
2021/06/23 05:31:17;;;;;;;32.45;13.45;;;;;;;28.66;55.16;99556.28;4348639;32;33832;-85
2021/06/23 05:33:45;;;;;;;31.52;11.77;;;;;;;28.72;54.70;99556.66;4362061;32;34600;-87
2021/06/23 05:36:12;;;;;;;30.02;11.52;;;;;;;28.89;54.10;99557.16;4350014;32;34246;-86
2021/06/23 05:38:40;;;;;;;24.90;11.63;;;;;;;28.92;54.35;99562.25;4349150;32;33417;-86
2021/06/23 05:41:08;;;;;;;28.27;12.40;;;;;;;28.94;54.02;99565.66;4349258;32;32923;-86
2021/06/23 05:43:35;;;;;;;24.45;12.65;;;;;;;29.21;52.51;99569.72;4349187;32;35446;-86
2021/06/23 05:46:04;;;;;;;30.42;12.77;;;;;;;29.40;51.55;99563.72;4337068;32;34081;-86
2021/06/23 05:48:32;;;;;;;29.98;13.50;;;;;;;29.09;53.19;99568.00;4337131;32;34105;-86
2021/06/23 05:50:59;;;;;;;32.28;12.00;;;;;;;29.03;53.08;99575.63;4349349;32;33898;-86
2021/06/23 05:53:27;;;;;;;25.73;13.15;;;;;;;29.09;52.89;99577.84;4349355;32;34393;-87
2021/06/23 05:55:55;;;;;;;30.27;13.25;;;;;;;29.27;52.47;99573.72;4349138;32;33450;-87
2021/06/23 05:58:23;;;;;;;27.23;12.32;;;;;;;29.35;51.93;99576.66;4336837;32;33099;-88
2021/06/23 06:00:51;;;;;;;26.67;12.35;;;;;;;29.47;51.33;99579.19;4349135;32;34185;-85
2021/06/23 06:03:19;;;;;;;26.42;12.07;;;;;;;29.63;50.55;99575.25;4361504;32;35372;-86
2021/06/23 06:05:47;;;;;;;24.58;11.35;;;;;;;29.53;50.14;99580.50;4336753;32;33666;-87
2021/06/23 06:08:15;;;;;;;26.23;11.12;;;;;;;29.64;50.22;99580.50;4349103;32;33366;-87
2021/06/23 06:10:43;;;;;;;29.65;12.23;;;;;;;29.57;50.37;99575.75;4336565;32;34541;-88
2021/06/23 06:13:10;;;;;;;25.12;12.23;;;;;;;29.71;50.02;99581.69;4336960;32;35241;-87
2021/06/23 06:15:38;;;;;;;29.77;12.70;;;;;;;29.86;50.08;99585.81;4348430;32;34821;-87
2021/06/23 06:18:07;;;;;;;28.58;13.40;;;;;;;29.91;50.53;99588.97;4337080;32;32862;-88
2021/06/23 06:20:35;;;;;;;26.67;13.13;;;;;;;30.06;50.09;99587.69;4336463;32;34211;-87
2021/06/23 06:23:03;;;;;;;24.52;12.32;;;;;;;30.19;49.78;99589.34;4348893;32;35286;-87
2021/06/23 06:25:32;;;;;;;28.48;13.02;;;;;;;30.41;48.64;99590.09;4336460;32;35253;-87
2021/06/23 06:28:00;;;;;;;31.23;12.82;;;;;;;30.23;48.61;99594.31;4336502;32;33621;-87
2021/06/23 06:30:29;;;;;;;25.02;12.10;;;;;;;30.50;47.31;99596.53;4337077;32;34651;-86
2021/06/23 06:32:57;;;;;;;23.35;12.35;;;;;;;30.51;48.33;99601.78;4348610;32;34872;-87
2021/06/23 06:35:25;;;;;;;24.00;11.45;;;;;;;30.58;47.81;99604.78;4361270;32;34557;-87
2021/06/23 06:37:54;;;;;;;23.62;12.30;;;;;;;30.83;46.99;99596.34;4336189;32;33768;-87
2021/06/23 06:40:23;;;;;;;21.52;11.52;;;;;;;31.01;46.60;99597.44;4348386;32;33426;-87
2021/06/23 06:42:51;;;;;;;24.92;11.98;;;;;;;31.19;46.19;99598.50;4348915;32;34392;-87
2021/06/23 06:45:19;;;;;;;26.58;11.30;;;;;;;31.27;45.89;99596.00;4338510;32;34627;-87
2021/06/23 06:47:48;;;;;;;26.17;10.75;;;;;;;31.22;45.85;99597.37;4338576;32;33739;-87
2021/06/23 06:50:15;;;;;;;26.02;11.15;;;;;;;31.41;45.57;99606.38;4362774;32;34473;-87
2021/06/23 06:52:44;;;;;;;26.25;11.45;;;;;;;31.52;45.46;99600.09;4338153;32;34038;-87
2021/06/23 06:55:20;;;;;;;20.08;10.75;;;;;;;31.59;45.45;99600.38;4350404;32;34066;-87
2021/06/23 06:57:52;;;;;;;26.17;10.57;;;;;;;31.79;44.57;99612.84;4339080;32;33585;-87
2021/06/23 07:00:20;;;;;;;22.42;10.25;;;;;;;31.89;44.39;99608.34;4338299;32;33277;-87
2021/06/23 07:02:51;;;;;;;21.33;10.57;;;;;;;31.97;43.25;99616.62;4338294;32;35261;-87
2021/06/23 07:05:21;;;;;;;24.67;9.50;;;;;;;32.17;42.60;99617.44;4350670;32;34413;-86
2021/06/23 07:07:50;;;;;;;26.75;10.25;;;;;;;32.22;42.26;99624.12;4362517;32;33247;-87
2021/06/23 07:10:19;;;;;;;19.85;9.25;;;;;;;32.35;42.24;99621.16;4338192;32;33417;-87
2021/06/23 07:12:47;;;;;;;26.02;9.98;;;;;;;32.61;42.03;99628.53;4350501;32;34427;-86
2021/06/23 07:15:15;;;;;;;23.70;10.02;;;;;;;32.75;40.31;99630.78;4350126;32;34401;-87
2021/06/23 07:17:43;;;;;;;18.58;8.77;;;;;;;32.76;40.44;99629.78;4350416;32;34158;-86
2021/06/23 07:20:11;;;;;;;17.73;8.80;;;;;;;32.79;40.94;99631.31;4337780;32;34387;-87
2021/06/23 07:22:38;;;;;;;19.52;8.48;;;;;;;32.81;41.44;99632.03;4337677;32;35351;-87
2021/06/23 07:25:07;;;;;;;25.02;9.30;;;;;;;33.04;39.96;99619.97;4338112;32;33496;-87
2021/06/23 07:27:35;;;;;;;23.92;8.43;;;;;;;33.09;40.01;99619.53;4350031;32;34141;-86
2021/06/23 07:30:04;;;;;;;27.55;8.80;;;;;;;33.13;40.72;99619.09;4337430;32;33645;-87
2021/06/23 07:32:43;;;;;;;26.23;8.35;;;;;;;33.35;39.63;99623.25;4338008;32;34233;-86
2021/06/23 07:37:58;;;;;;;22.37;8.82;;;;;;;33.41;38.45;99611.84;4352498;32;34887;-87
2021/06/23 07:43:12;;;;;;;22.62;8.55;;;;;;;33.72;38.00;99618.69;4352031;32;34590;-86
2021/06/23 07:45:51;;;;;;;19.75;8.70;;;;;;;33.67;39.12;99623.66;4339343;32;34062;-86
2021/06/23 07:48:30;;;;;;;22.65;9.18;;;;;;;34.05;37.54;99626.16;4350923;32;34122;-86
2021/06/23 07:51:16;;;;;;;24.12;9.10;;;;;;;33.97;38.92;99615.22;4363345;32;34601;-86
2021/06/23 08:10:30;;;;;;;23.42;8.98;;;;;;;34.69;35.24;99628.59;4363443;32;33387;-87
2021/06/23 08:12:58;;;;;;;17.37;7.95;;;;;;;34.82;34.70;99632.75;4362317;32;33788;-86
2021/06/23 08:15:28;;;;;;;19.23;7.40;;;;;;;34.89;35.31;99631.97;4337501;32;35289;-86
2021/06/23 08:17:57;;;;;;;25.55;8.32;;;;;;;34.93;34.89;99633.34;4349645;32;33916;-85
2021/06/23 08:20:25;;;;;;;21.05;7.05;;;;;;;34.86;34.78;99634.97;4337305;32;33395;-85
2021/06/23 08:22:53;;;;;;;22.60;7.85;;;;;;;34.91;34.01;99635.34;4349276;32;34057;-85
2021/06/23 08:25:21;;;;;;;21.30;7.90;;;;;;;35.06;34.06;99630.25;4336922;32;34958;-85
2021/06/23 08:27:51;;;;;;;24.30;7.95;;;;;;;35.16;33.91;99637.22;4337211;32;33598;-85
2021/06/23 08:30:20;;;;;;;21.67;8.48;;;;;;;35.37;33.66;99640.38;4337372;32;33530;-86
2021/06/23 08:32:48;;;;;;;20.70;8.45;;;;;;;35.31;33.14;99641.03;4350110;32;35143;-84
2021/06/23 08:35:17;;;;;;;22.80;8.77;;;;;;;35.06;35.17;99638.34;4350492;32;34681;-84
2021/06/23 08:37:45;;;;;;;18.77;8.75;;;;;;;34.94;35.60;99643.16;4338372;32;35168;-84
2021/06/23 08:40:14;;;;;;;30.62;8.38;;;;;;;35.13;35.38;99637.56;4337709;32;32901;-85
2021/06/23 08:42:42;;;;;;;25.52;8.07;;;;;;;35.19;34.65;99642.31;4338036;32;35105;-84
2021/06/23 08:45:11;;;;;;;21.92;8.30;;;;;;;35.19;34.58;99634.19;4350065;32;35739;-85
2021/06/23 08:47:49;;;;;;;16.83;7.20;;;;;;;35.07;34.36;99642.72;4350123;32;35270;-85
2021/06/23 08:50:20;;;;;;;19.83;8.25;;;;;;;35.45;33.18;99638.72;4338007;32;33523;-85
2021/06/23 08:52:48;;;;;;;22.85;8.65;;;;;;;35.37;34.13;99634.97;4343408;32;626784;-85
2021/06/23 08:55:20;;;;;;;23.17;8.52;;;;;;;35.49;33.44;99642.81;4349958;32;34305;-85
2021/06/23 08:57:50;;;;;;;22.95;8.13;;;;;;;35.38;32.79;99647.47;4349885;32;34144;-85
2021/06/23 09:00:19;;;;;;;18.12;7.82;;;;;;;35.45;32.02;99646.81;4350249;32;33755;-86
2021/06/23 09:02:47;;;;;;;23.90;9.18;;;;;;;35.63;32.31;99650.34;4337854;32;33651;-85
2021/06/23 09:05:17;;;;;;;23.67;8.85;;;;;;;35.47;34.00;99644.84;4349252;32;34423;-84
2021/06/23 09:07:48;;;;;;;20.00;8.73;;;;;;;35.55;32.93;99643.03;4349642;32;34108;-85
2021/06/23 09:10:26;;;;;;;;;;;;;;;35.55;33.59;99650.28;4338546;32;34557;-85
2021/06/23 09:13:09;;;;;;;19.55;9.13;;;;;;;35.74;33.25;99634.66;4350131;32;34457;-87
2021/06/23 09:15:50;;;;;;;18.02;8.95;;;;;;;35.55;33.49;99642.19;4350211;32;34464;-85
2021/06/23 09:18:29;;;;;;;25.95;9.30;;;;;;;35.25;35.25;99649.78;4337732;32;34849;-85
2021/06/23 09:21:00;;;;;;;23.85;9.38;;;;;;;35.47;33.86;99644.84;4337697;32;33149;-85
2021/06/23 09:23:54;;;;;;;17.50;8.15;;;;;;;35.45;34.08;99646.81;4338085;32;34156;-85
2021/06/23 09:26:29;;;;;;;20.92;8.52;;;;;;;35.70;32.65;99654.94;4362193;32;34527;-85
2021/06/23 09:29:09;;;;;;;18.42;8.25;;;;;;;35.93;32.28;99652.47;4350004;32;34824;-85
2021/06/23 09:32:01;;;;;;;19.45;7.93;;;;;;;36.13;30.17;99651.19;4338286;32;32914;-85
2021/06/23 09:34:35;;;;;;;17.67;8.52;;;;;;;36.24;30.86;99652.72;4338089;32;34691;-85
2021/06/23 09:37:42;;;;;;;21.15;7.72;;;;;;;36.52;31.14;99655.00;4338025;32;34760;-84
2021/06/23 09:40:09;;;;;;;17.17;7.65;;;;;;;36.40;30.70;99658.16;4290126;33;33784;-84
2021/06/23 09:42:39;;;;;;;17.48;7.87;;;;;;;36.61;30.97;99659.38;4289821;33;32939;-85
2021/06/23 09:45:10;;;;;;;19.15;8.85;;;;;;;36.22;33.71;99658.31;4320190;32;34431;-85
2021/06/23 09:47:38;;;;;;;14.57;7.37;;;;;;;36.31;33.28;99657.31;4349854;32;34057;-84
2021/06/23 09:50:08;;;;;;;18.73;7.40;;;;;;;36.72;31.75;99660.91;4337050;32;34673;-86
2021/06/23 09:52:38;;;;;;;20.50;8.80;;;;;;;36.91;31.74;99662.44;4337658;32;32859;-85
2021/06/23 09:55:06;;;;;;;17.20;8.15;;;;;;;36.95;30.92;99661.94;4337964;32;33906;-85
2021/06/23 09:57:39;;;;;;;22.80;9.02;;;;;;;37.07;31.06;99660.56;4337758;32;34417;-86
2021/06/23 10:00:10;;;;;;;21.52;8.00;;;;;;;36.79;31.42;99667.34;4362128;32;34381;-85
2021/06/23 10:02:39;;;;;;;19.27;8.32;;;;;;;36.96;30.59;99660.09;4338280;32;33219;-85
2021/06/23 10:05:13;;;;;;;24.90;8.73;;;;;;;37.07;30.70;99663.28;4349888;32;33425;-86
2021/06/23 10:07:42;;;;;;;18.77;7.85;;;;;;;36.82;30.92;99666.16;4349700;32;34202;-85
2021/06/23 10:10:12;;;;;;;22.10;8.90;;;;;;;37.07;31.05;99662.44;4349822;32;34196;-85
2021/06/23 10:12:40;;;;;;;19.23;8.47;;;;;;;36.90;31.14;99653.44;4337516;32;33157;-85
2021/06/23 10:15:09;;;;;;;18.33;8.35;;;;;;;37.10;30.29;99664.81;4337603;32;34268;-86
2021/06/23 10:17:37;;;;;;;21.00;8.60;;;;;;;37.15;29.45;99657.84;4337603;32;34637;-86
2021/06/23 10:20:06;;;;;;;21.05;8.18;;;;;;;37.33;28.44;99654.91;4361978;32;35207;-86
2021/06/23 10:22:35;;;;;;;16.20;7.82;;;;;;;37.16;30.91;99664.09;4361901;32;33917;-85
2021/06/23 10:25:05;;;;;;;22.13;8.02;;;;;;;37.28;29.46;99654.56;4337803;32;35317;-86
2021/06/23 10:27:35;;;;;;;21.67;8.60;;;;;;;37.26;28.36;99665.59;4337227;32;33854;-86
2021/06/23 10:30:04;;;;;;;15.13;7.47;;;;;;;37.31;27.78;99665.09;4337337;32;33614;-85
2021/06/23 10:32:32;;;;;;;19.92;8.93;;;;;;;37.45;28.51;99667.09;4361876;32;33424;-85
2021/06/23 10:34:59;;;;;;;22.42;8.18;;;;;;;37.65;28.53;99675.69;4337261;32;35137;-85
2021/06/23 10:37:28;;;;;;;18.85;8.48;;;;;;;37.48;26.54;99672.19;4361625;32;35750;-85
2021/06/23 10:39:56;;;;;;;21.95;8.02;;;;;;;37.16;27.16;99664.94;4348576;32;34053;-86
2021/06/23 10:42:24;;;;;;;20.37;7.53;;;;;;;37.29;27.70;99672.56;4349288;32;33402;-86
2021/06/23 10:44:55;;;;;;;16.92;7.40;;;;;;;37.43;27.04;99666.44;4336944;32;33637;-85
2021/06/23 10:47:38;;;;;;;14.85;7.97;;;;;;;37.29;29.04;99669.84;4349145;32;34417;-86
2021/06/23 10:50:07;;;;;;;16.92;7.45;;;;;;;37.07;28.06;99665.13;4362729;32;35356;-85
2021/06/23 10:52:45;;;;;;;19.52;7.10;;;;;;;37.08;29.03;99666.84;4349380;32;34694;-85
2021/06/23 10:55:13;;;;;;;15.38;6.70;;;;;;;36.79;28.67;99672.78;4361527;32;35319;-85
2021/06/23 10:57:44;;;;;;;16.73;7.07;;;;;;;37.09;28.09;99663.09;4362571;32;35154;-86
2021/06/23 11:00:11;;;;;;;14.73;7.55;;;;;;;37.20;27.38;99660.91;4361269;32;34743;-85
2021/06/23 11:02:42;;;;;;;17.65;6.78;;;;;;;37.31;27.79;99660.50;4349222;32;33752;-86
2021/06/23 11:05:14;;;;;;;16.23;7.00;;;;;;;37.23;28.86;99665.09;4336906;32;33720;-85
2021/06/23 11:07:43;;;;;;;17.25;7.07;;;;;;;37.28;28.25;99673.56;4349024;32;34643;-86
2021/06/23 11:10:11;;;;;;;14.45;7.05;;;;;;;37.30;27.67;99671.50;4349154;32;34169;-86
2021/06/23 11:12:48;;;;;;;16.67;6.55;;;;;;;37.44;27.92;99665.44;4349088;32;33695;-86
2021/06/23 11:15:18;;;;;;;16.87;6.70;;;;;;;37.52;26.41;99667.25;4348876;32;33761;-85
2021/06/23 11:17:51;;;;;;;20.73;7.37;;;;;;;37.73;26.05;99667.50;4348473;32;36260;-85
2021/06/23 11:20:19;;;;;;;20.48;7.20;;;;;;;37.59;27.23;99663.66;4348921;32;34194;-85
2021/06/23 11:22:47;;;;;;;14.13;6.18;;;;;;;37.62;27.02;99667.91;4349054;32;34589;-86
2021/06/23 11:25:28;;;;;;;17.85;6.75;;;;;;;37.45;26.42;99660.81;4348760;32;33981;-85
2021/06/23 11:28:08;;;;;;;;;;;;;;;37.62;27.73;99665.19;4349068;32;34564;-86
2021/06/23 11:31:03;;;;;;;18.85;6.60;;;;;;;37.59;27.50;99663.66;4350529;32;34372;-84
2021/06/23 11:33:31;;;;;;;17.65;5.97;;;;;;;37.28;27.72;99674.41;4350736;32;33122;-85
2021/06/23 11:36:19;;;;;;;17.48;6.07;;;;;;;37.54;27.52;99678.78;4350594;32;35159;-84
2021/06/23 11:38:48;;;;;;;20.52;6.35;;;;;;;37.57;25.59;99682.00;4350473;32;35149;-84
2021/06/23 11:41:16;;;;;;;21.30;6.90;;;;;;;37.63;25.38;99677.75;4350729;32;33525;-84
2021/06/23 11:43:43;;;;;;;16.37;5.78;;;;;;;37.22;26.48;99683.25;4351040;32;34077;-84
2021/06/23 11:46:12;;;;;;;17.12;5.45;;;;;;;37.24;25.65;99688.50;4350872;32;35055;-84
2021/06/23 11:48:41;;;;;;;13.52;6.20;;;;;;;37.32;24.99;99681.19;4363093;32;34443;-84
2021/06/23 11:51:12;;;;;;;12.10;5.32;;;;;;;37.30;25.48;99685.06;4338648;32;33470;-84
2021/06/23 11:53:40;;;;;;;17.98;5.28;;;;;;;37.27;24.35;99685.44;4363015;32;33444;-84
2021/06/23 11:56:08;;;;;;;16.90;5.75;;;;;;;37.31;24.43;99682.22;4362900;32;33843;-84
2021/06/23 11:58:36;;;;;;;15.18;5.70;;;;;;;37.40;23.40;99682.19;4350582;32;33932;-85